sensor_id;sensor_type;location;lat;lon;timestamp;P1;durP1;ratioP1;P2;durP2;ratioP2
8230;SDS011;4156;50.908;6.974;2024-03-02T00:01:47;2.23;;;1.70;;
8230;SDS011;4156;50.908;6.974;2024-03-02T00:04:13;2.10;;;1.80;;
8230;SDS011;4156;50.908;6.974;2024-03-02T00:06:39;2.10;;;1.80;;
8230;SDS011;4156;50.908;6.974;2024-03-02T00:09:04;1.60;;;1.50;;
8230;SDS011;4156;50.908;6.974;2024-03-02T00:11:34;2.60;;;1.90;;
8230;SDS011;4156;50.908;6.974;2024-03-02T00:14:01;1.90;;;1.70;;
8230;SDS011;4156;50.908;6.974;2024-03-02T00:16:30;2.10;;;1.60;;
8230;SDS011;4156;50.908;6.974;2024-03-02T00:18:56;2.03;;;1.83;;
8230;SDS011;4156;50.908;6.974;2024-03-02T00:21:24;2.57;;;1.87;;
8230;SDS011;4156;50.908;6.974;2024-03-02T00:23:51;2.33;;;1.80;;
8230;SDS011;4156;50.908;6.974;2024-03-02T00:26:18;2.37;;;1.70;;
8230;SDS011;4156;50.908;6.974;2024-03-02T00:28:44;2.47;;;1.63;;
8230;SDS011;4156;50.908;6.974;2024-03-02T00:31:13;1.70;;;1.60;;
8230;SDS011;4156;50.908;6.974;2024-03-02T00:36:06;1.83;;;1.63;;
8230;SDS011;4156;50.908;6.974;2024-03-02T00:38:33;1.63;;;1.47;;
8230;SDS011;4156;50.908;6.974;2024-03-02T00:41:00;2.10;;;1.90;;
8230;SDS011;4156;50.908;6.974;2024-03-02T00:45:52;2.43;;;1.90;;
8230;SDS011;4156;50.908;6.974;2024-03-02T00:48:18;1.70;;;1.40;;
8230;SDS011;4156;50.908;6.974;2024-03-02T00:50:44;1.80;;;1.63;;
8230;SDS011;4156;50.908;6.974;2024-03-02T00:53:11;1.63;;;1.50;;
8230;SDS011;4156;50.908;6.974;2024-03-02T00:55:38;2.60;;;2.10;;
8230;SDS011;4156;50.908;6.974;2024-03-02T00:58:09;2.87;;;1.80;;
8230;SDS011;4156;50.908;6.974;2024-03-02T01:00:35;1.57;;;1.47;;
8230;SDS011;4156;50.908;6.974;2024-03-02T01:03:01;4.70;;;2.00;;
8230;SDS011;4156;50.908;6.974;2024-03-02T01:05:27;3.10;;;1.67;;
8230;SDS011;4156;50.908;6.974;2024-03-02T01:07:53;2.10;;;1.60;;
8230;SDS011;4156;50.908;6.974;2024-03-02T01:10:18;2.00;;;1.80;;
8230;SDS011;4156;50.908;6.974;2024-03-02T01:12:45;1.97;;;1.60;;
8230;SDS011;4156;50.908;6.974;2024-03-02T01:15:11;1.77;;;1.47;;
8230;SDS011;4156;50.908;6.974;2024-03-02T01:17:37;1.67;;;1.50;;
8230;SDS011;4156;50.908;6.974;2024-03-02T01:20:03;1.70;;;1.60;;
8230;SDS011;4156;50.908;6.974;2024-03-02T01:22:29;3.53;;;1.80;;
8230;SDS011;4156;50.908;6.974;2024-03-02T01:24:55;2.33;;;1.80;;
8230;SDS011;4156;50.908;6.974;2024-03-02T01:27:21;1.73;;;1.60;;
8230;SDS011;4156;50.908;6.974;2024-03-02T01:29:47;1.90;;;1.60;;
8230;SDS011;4156;50.908;6.974;2024-03-02T01:32:13;1.80;;;1.70;;
8230;SDS011;4156;50.908;6.974;2024-03-02T01:34:39;1.60;;;1.50;;
8230;SDS011;4156;50.908;6.974;2024-03-02T01:37:05;2.83;;;1.60;;
8230;SDS011;4156;50.908;6.974;2024-03-02T01:39:31;1.80;;;1.60;;
8230;SDS011;4156;50.908;6.974;2024-03-02T01:41:57;2.30;;;1.80;;
8230;SDS011;4156;50.908;6.974;2024-03-02T01:44:23;2.30;;;1.90;;
8230;SDS011;4156;50.908;6.974;2024-03-02T01:46:49;2.00;;;1.63;;
8230;SDS011;4156;50.908;6.974;2024-03-02T01:49:15;2.63;;;1.77;;
8230;SDS011;4156;50.908;6.974;2024-03-02T01:51:41;2.30;;;1.80;;
8230;SDS011;4156;50.908;6.974;2024-03-02T01:54:07;1.83;;;1.50;;
8230;SDS011;4156;50.908;6.974;2024-03-02T01:56:33;1.30;;;1.20;;
8230;SDS011;4156;50.908;6.974;2024-03-02T01:58:59;3.67;;;1.40;;
8230;SDS011;4156;50.908;6.974;2024-03-02T02:01:25;2.03;;;1.67;;
8230;SDS011;4156;50.908;6.974;2024-03-02T02:03:51;3.73;;;1.70;;
8230;SDS011;4156;50.908;6.974;2024-03-02T02:06:17;1.60;;;1.50;;
8230;SDS011;4156;50.908;6.974;2024-03-02T02:08:43;2.17;;;1.60;;
8230;SDS011;4156;50.908;6.974;2024-03-02T02:11:10;1.93;;;1.60;;
8230;SDS011;4156;50.908;6.974;2024-03-02T02:13:36;2.23;;;1.67;;
8230;SDS011;4156;50.908;6.974;2024-03-02T02:16:08;2.60;;;1.43;;
8230;SDS011;4156;50.908;6.974;2024-03-02T02:18:34;1.77;;;1.43;;
8230;SDS011;4156;50.908;6.974;2024-03-02T02:21:03;2.33;;;1.60;;
8230;SDS011;4156;50.908;6.974;2024-03-02T02:23:29;1.87;;;1.47;;
8230;SDS011;4156;50.908;6.974;2024-03-02T02:25:55;2.37;;;1.57;;
8230;SDS011;4156;50.908;6.974;2024-03-02T02:28:21;2.13;;;1.53;;
8230;SDS011;4156;50.908;6.974;2024-03-02T02:30:47;1.70;;;1.60;;
8230;SDS011;4156;50.908;6.974;2024-03-02T02:33:13;1.63;;;1.47;;
8230;SDS011;4156;50.908;6.974;2024-03-02T02:35:39;1.40;;;1.30;;
8230;SDS011;4156;50.908;6.974;2024-03-02T02:38:05;2.37;;;1.40;;
8230;SDS011;4156;50.908;6.974;2024-03-02T02:40:31;2.03;;;1.60;;
8230;SDS011;4156;50.908;6.974;2024-03-02T02:42:58;2.43;;;1.50;;
8230;SDS011;4156;50.908;6.974;2024-03-02T02:45:24;1.50;;;1.40;;
8230;SDS011;4156;50.908;6.974;2024-03-02T02:47:50;1.73;;;1.53;;
8230;SDS011;4156;50.908;6.974;2024-03-02T02:50:16;2.60;;;1.63;;
8230;SDS011;4156;50.908;6.974;2024-03-02T02:52:42;2.33;;;1.70;;
8230;SDS011;4156;50.908;6.974;2024-03-02T02:55:09;1.50;;;1.40;;
8230;SDS011;4156;50.908;6.974;2024-03-02T02:57:35;1.80;;;1.40;;
8230;SDS011;4156;50.908;6.974;2024-03-02T03:00:04;2.43;;;1.23;;
8230;SDS011;4156;50.908;6.974;2024-03-02T03:02:34;1.83;;;1.33;;
8230;SDS011;4156;50.908;6.974;2024-03-02T03:05:00;3.20;;;1.70;;
8230;SDS011;4156;50.908;6.974;2024-03-02T03:07:26;2.90;;;1.80;;
8230;SDS011;4156;50.908;6.974;2024-03-02T03:09:52;3.60;;;1.90;;
8230;SDS011;4156;50.908;6.974;2024-03-02T03:12:18;1.63;;;1.40;;
8230;SDS011;4156;50.908;6.974;2024-03-02T03:14:44;1.70;;;1.57;;
8230;SDS011;4156;50.908;6.974;2024-03-02T03:17:10;2.90;;;1.87;;
8230;SDS011;4156;50.908;6.974;2024-03-02T03:19:37;1.63;;;1.47;;
8230;SDS011;4156;50.908;6.974;2024-03-02T03:22:04;2.73;;;1.53;;
8230;SDS011;4156;50.908;6.974;2024-03-02T03:24:30;1.60;;;1.50;;
8230;SDS011;4156;50.908;6.974;2024-03-02T03:26:56;2.73;;;1.47;;
8230;SDS011;4156;50.908;6.974;2024-03-02T03:29:21;1.67;;;1.47;;
8230;SDS011;4156;50.908;6.974;2024-03-02T03:31:47;1.97;;;1.67;;
8230;SDS011;4156;50.908;6.974;2024-03-02T03:34:13;1.70;;;1.50;;
8230;SDS011;4156;50.908;6.974;2024-03-02T03:36:41;1.53;;;1.43;;
8230;SDS011;4156;50.908;6.974;2024-03-02T03:39:07;2.47;;;1.43;;
8230;SDS011;4156;50.908;6.974;2024-03-02T03:41:33;3.40;;;1.90;;
8230;SDS011;4156;50.908;6.974;2024-03-02T03:43:58;2.77;;;1.40;;
8230;SDS011;4156;50.908;6.974;2024-03-02T03:46:24;2.03;;;1.60;;
8230;SDS011;4156;50.908;6.974;2024-03-02T03:48:50;2.00;;;1.60;;
8230;SDS011;4156;50.908;6.974;2024-03-02T03:51:16;1.57;;;1.47;;
8230;SDS011;4156;50.908;6.974;2024-03-02T03:53:42;4.13;;;1.97;;
8230;SDS011;4156;50.908;6.974;2024-03-02T03:56:08;2.77;;;1.70;;
8230;SDS011;4156;50.908;6.974;2024-03-02T03:58:34;3.00;;;1.57;;
8230;SDS011;4156;50.908;6.974;2024-03-02T04:01:00;1.70;;;1.60;;
8230;SDS011;4156;50.908;6.974;2024-03-02T04:03:26;2.40;;;1.60;;
8230;SDS011;4156;50.908;6.974;2024-03-02T04:05:52;4.00;;;1.40;;
8230;SDS011;4156;50.908;6.974;2024-03-02T04:08:18;1.50;;;1.40;;
8230;SDS011;4156;50.908;6.974;2024-03-02T04:10:44;2.73;;;1.73;;
8230;SDS011;4156;50.908;6.974;2024-03-02T04:13:10;2.20;;;1.50;;
8230;SDS011;4156;50.908;6.974;2024-03-02T04:15:36;1.57;;;1.47;;
8230;SDS011;4156;50.908;6.974;2024-03-02T04:18:02;3.00;;;1.70;;
8230;SDS011;4156;50.908;6.974;2024-03-02T04:20:28;2.00;;;1.70;;
8230;SDS011;4156;50.908;6.974;2024-03-02T04:22:54;3.67;;;1.83;;
8230;SDS011;4156;50.908;6.974;2024-03-02T04:25:20;1.90;;;1.53;;
8230;SDS011;4156;50.908;6.974;2024-03-02T04:27:46;1.60;;;1.50;;
8230;SDS011;4156;50.908;6.974;2024-03-02T04:30:12;1.60;;;1.50;;
8230;SDS011;4156;50.908;6.974;2024-03-02T04:32:38;2.33;;;1.70;;
8230;SDS011;4156;50.908;6.974;2024-03-02T04:35:05;2.63;;;1.70;;
8230;SDS011;4156;50.908;6.974;2024-03-02T04:37:34;2.10;;;1.40;;
8230;SDS011;4156;50.908;6.974;2024-03-02T04:40:00;2.07;;;1.67;;
8230;SDS011;4156;50.908;6.974;2024-03-02T04:42:26;3.17;;;1.70;;
8230;SDS011;4156;50.908;6.974;2024-03-02T04:44:51;2.67;;;1.60;;
8230;SDS011;4156;50.908;6.974;2024-03-02T04:47:17;2.83;;;1.63;;
8230;SDS011;4156;50.908;6.974;2024-03-02T04:49:43;3.20;;;1.57;;
8230;SDS011;4156;50.908;6.974;2024-03-02T04:52:10;3.50;;;1.60;;
8230;SDS011;4156;50.908;6.974;2024-03-02T04:54:36;2.50;;;1.90;;
8230;SDS011;4156;50.908;6.974;2024-03-02T04:57:22;2.90;;;1.70;;
8230;SDS011;4156;50.908;6.974;2024-03-02T04:59:47;2.80;;;1.53;;
8230;SDS011;4156;50.908;6.974;2024-03-02T05:02:13;2.83;;;2.10;;
8230;SDS011;4156;50.908;6.974;2024-03-02T05:04:40;1.50;;;1.40;;
8230;SDS011;4156;50.908;6.974;2024-03-02T05:07:06;2.13;;;1.90;;
8230;SDS011;4156;50.908;6.974;2024-03-02T05:09:32;2.73;;;1.73;;
8230;SDS011;4156;50.908;6.974;2024-03-02T05:11:58;5.00;;;1.70;;
8230;SDS011;4156;50.908;6.974;2024-03-02T05:14:43;1.87;;;1.67;;
8230;SDS011;4156;50.908;6.974;2024-03-02T05:17:09;2.13;;;1.70;;
8230;SDS011;4156;50.908;6.974;2024-03-02T05:19:35;3.17;;;2.00;;
8230;SDS011;4156;50.908;6.974;2024-03-02T05:22:01;2.93;;;2.00;;
8230;SDS011;4156;50.908;6.974;2024-03-02T05:24:28;3.10;;;1.80;;
8230;SDS011;4156;50.908;6.974;2024-03-02T05:26:54;3.13;;;1.97;;
8230;SDS011;4156;50.908;6.974;2024-03-02T05:29:20;3.27;;;1.90;;
8230;SDS011;4156;50.908;6.974;2024-03-02T05:31:47;3.40;;;1.80;;
8230;SDS011;4156;50.908;6.974;2024-03-02T05:34:13;2.00;;;1.70;;
8230;SDS011;4156;50.908;6.974;2024-03-02T05:36:39;2.40;;;1.70;;
8230;SDS011;4156;50.908;6.974;2024-03-02T05:39:05;2.57;;;1.70;;
8230;SDS011;4156;50.908;6.974;2024-03-02T05:41:34;2.43;;;2.00;;
8230;SDS011;4156;50.908;6.974;2024-03-02T05:44:00;2.20;;;1.73;;
8230;SDS011;4156;50.908;6.974;2024-03-02T05:46:26;2.00;;;1.80;;
8230;SDS011;4156;50.908;6.974;2024-03-02T05:48:52;2.80;;;2.00;;
8230;SDS011;4156;50.908;6.974;2024-03-02T05:51:18;2.70;;;2.10;;
8230;SDS011;4156;50.908;6.974;2024-03-02T05:53:44;2.93;;;1.87;;
8230;SDS011;4156;50.908;6.974;2024-03-02T05:56:10;2.30;;;1.80;;
8230;SDS011;4156;50.908;6.974;2024-03-02T05:58:37;3.07;;;1.90;;
8230;SDS011;4156;50.908;6.974;2024-03-02T06:01:18;2.40;;;1.87;;
8230;SDS011;4156;50.908;6.974;2024-03-02T06:03:44;2.20;;;2.00;;
8230;SDS011;4156;50.908;6.974;2024-03-02T06:06:10;3.13;;;2.03;;
8230;SDS011;4156;50.908;6.974;2024-03-02T06:08:36;3.27;;;1.97;;
8230;SDS011;4156;50.908;6.974;2024-03-02T06:11:02;2.20;;;1.90;;
8230;SDS011;4156;50.908;6.974;2024-03-02T06:13:28;1.87;;;1.73;;
8230;SDS011;4156;50.908;6.974;2024-03-02T06:15:54;3.20;;;2.13;;
8230;SDS011;4156;50.908;6.974;2024-03-02T06:18:20;2.20;;;1.97;;
8230;SDS011;4156;50.908;6.974;2024-03-02T06:20:46;2.47;;;2.00;;
8230;SDS011;4156;50.908;6.974;2024-03-02T06:23:11;2.73;;;2.10;;
8230;SDS011;4156;50.908;6.974;2024-03-02T06:25:37;2.37;;;1.90;;
8230;SDS011;4156;50.908;6.974;2024-03-02T06:28:03;2.97;;;2.10;;
8230;SDS011;4156;50.908;6.974;2024-03-02T06:30:29;2.57;;;2.10;;
8230;SDS011;4156;50.908;6.974;2024-03-02T06:32:55;2.33;;;1.97;;
8230;SDS011;4156;50.908;6.974;2024-03-02T06:35:22;2.00;;;1.80;;
8230;SDS011;4156;50.908;6.974;2024-03-02T06:37:48;3.67;;;2.27;;
8230;SDS011;4156;50.908;6.974;2024-03-02T06:40:14;2.90;;;2.00;;
8230;SDS011;4156;50.908;6.974;2024-03-02T06:42:41;2.57;;;2.37;;
8230;SDS011;4156;50.908;6.974;2024-03-02T06:45:07;3.07;;;2.10;;
8230;SDS011;4156;50.908;6.974;2024-03-02T06:47:58;2.47;;;2.20;;
8230;SDS011;4156;50.908;6.974;2024-03-02T06:50:24;3.87;;;2.07;;
8230;SDS011;4156;50.908;6.974;2024-03-02T06:52:50;2.77;;;2.00;;
8230;SDS011;4156;50.908;6.974;2024-03-02T06:55:16;2.43;;;2.20;;
8230;SDS011;4156;50.908;6.974;2024-03-02T06:57:42;3.40;;;2.27;;
8230;SDS011;4156;50.908;6.974;2024-03-02T07:00:08;3.27;;;2.50;;
8230;SDS011;4156;50.908;6.974;2024-03-02T07:02:35;3.43;;;2.20;;
8230;SDS011;4156;50.908;6.974;2024-03-02T07:05:01;3.80;;;2.30;;
8230;SDS011;4156;50.908;6.974;2024-03-02T07:07:27;4.20;;;2.17;;
8230;SDS011;4156;50.908;6.974;2024-03-02T07:09:53;3.70;;;2.47;;
8230;SDS011;4156;50.908;6.974;2024-03-02T07:12:19;3.43;;;2.37;;
8230;SDS011;4156;50.908;6.974;2024-03-02T07:14:45;2.97;;;2.57;;
8230;SDS011;4156;50.908;6.974;2024-03-02T07:17:29;2.67;;;2.10;;
8230;SDS011;4156;50.908;6.974;2024-03-02T07:19:55;2.57;;;2.07;;
8230;SDS011;4156;50.908;6.974;2024-03-02T07:22:22;2.50;;;2.30;;
8230;SDS011;4156;50.908;6.974;2024-03-02T07:24:48;2.77;;;2.07;;
8230;SDS011;4156;50.908;6.974;2024-03-02T07:27:14;3.77;;;2.10;;
8230;SDS011;4156;50.908;6.974;2024-03-02T07:29:40;2.83;;;2.20;;
8230;SDS011;4156;50.908;6.974;2024-03-02T07:32:07;3.33;;;2.03;;
8230;SDS011;4156;50.908;6.974;2024-03-02T07:34:33;3.23;;;2.00;;
8230;SDS011;4156;50.908;6.974;2024-03-02T07:36:59;3.13;;;2.33;;
8230;SDS011;4156;50.908;6.974;2024-03-02T07:39:25;3.33;;;2.40;;
8230;SDS011;4156;50.908;6.974;2024-03-02T07:41:51;3.97;;;2.43;;
8230;SDS011;4156;50.908;6.974;2024-03-02T07:44:18;2.43;;;2.00;;
8230;SDS011;4156;50.908;6.974;2024-03-02T07:46:47;2.10;;;1.90;;
8230;SDS011;4156;50.908;6.974;2024-03-02T07:49:14;2.13;;;1.77;;
8230;SDS011;4156;50.908;6.974;2024-03-02T07:51:41;3.27;;;2.10;;
8230;SDS011;4156;50.908;6.974;2024-03-02T07:54:07;2.43;;;2.00;;
8230;SDS011;4156;50.908;6.974;2024-03-02T07:56:33;3.50;;;2.40;;
8230;SDS011;4156;50.908;6.974;2024-03-02T07:58:59;2.80;;;2.40;;
8230;SDS011;4156;50.908;6.974;2024-03-02T08:01:29;3.47;;;2.30;;
8230;SDS011;4156;50.908;6.974;2024-03-02T08:03:56;3.10;;;2.43;;
8230;SDS011;4156;50.908;6.974;2024-03-02T08:06:23;3.87;;;2.40;;
8230;SDS011;4156;50.908;6.974;2024-03-02T08:08:52;2.90;;;2.10;;
8230;SDS011;4156;50.908;6.974;2024-03-02T08:11:18;2.97;;;2.57;;
8230;SDS011;4156;50.908;6.974;2024-03-02T08:13:44;3.67;;;2.40;;
8230;SDS011;4156;50.908;6.974;2024-03-02T08:16:10;2.60;;;2.30;;
8230;SDS011;4156;50.908;6.974;2024-03-02T08:18:36;3.13;;;2.40;;
8230;SDS011;4156;50.908;6.974;2024-03-02T08:21:02;3.93;;;2.20;;
8230;SDS011;4156;50.908;6.974;2024-03-02T08:23:28;3.40;;;2.30;;
8230;SDS011;4156;50.908;6.974;2024-03-02T08:25:55;3.77;;;2.13;;
8230;SDS011;4156;50.908;6.974;2024-03-02T08:28:21;4.37;;;2.13;;
8230;SDS011;4156;50.908;6.974;2024-03-02T08:30:47;4.63;;;2.20;;
8230;SDS011;4156;50.908;6.974;2024-03-02T08:33:13;2.33;;;1.70;;
8230;SDS011;4156;50.908;6.974;2024-03-02T08:35:39;2.37;;;1.90;;
8230;SDS011;4156;50.908;6.974;2024-03-02T08:38:05;4.03;;;1.90;;
8230;SDS011;4156;50.908;6.974;2024-03-02T08:40:31;2.60;;;1.77;;
8230;SDS011;4156;50.908;6.974;2024-03-02T08:42:57;2.53;;;1.90;;
8230;SDS011;4156;50.908;6.974;2024-03-02T08:45:23;2.67;;;1.93;;
8230;SDS011;4156;50.908;6.974;2024-03-02T08:47:49;2.00;;;1.80;;
8230;SDS011;4156;50.908;6.974;2024-03-02T08:50:15;2.53;;;1.90;;
8230;SDS011;4156;50.908;6.974;2024-03-02T08:52:41;1.93;;;1.73;;
8230;SDS011;4156;50.908;6.974;2024-03-02T08:55:08;2.23;;;1.90;;
8230;SDS011;4156;50.908;6.974;2024-03-02T08:57:36;1.87;;;1.47;;
8230;SDS011;4156;50.908;6.974;2024-03-02T09:00:02;3.77;;;2.00;;
8230;SDS011;4156;50.908;6.974;2024-03-02T09:02:30;5.83;;;1.83;;
8230;SDS011;4156;50.908;6.974;2024-03-02T09:04:56;2.70;;;1.90;;
8230;SDS011;4156;50.908;6.974;2024-03-02T09:07:22;2.00;;;1.70;;
8230;SDS011;4156;50.908;6.974;2024-03-02T09:09:47;2.60;;;1.70;;
8230;SDS011;4156;50.908;6.974;2024-03-02T09:12:13;3.67;;;1.97;;
8230;SDS011;4156;50.908;6.974;2024-03-02T09:14:40;2.80;;;1.70;;
8230;SDS011;4156;50.908;6.974;2024-03-02T09:17:06;2.97;;;2.10;;
8230;SDS011;4156;50.908;6.974;2024-03-02T09:19:33;4.40;;;2.10;;
8230;SDS011;4156;50.908;6.974;2024-03-02T09:21:59;2.37;;;1.70;;
8230;SDS011;4156;50.908;6.974;2024-03-02T09:24:28;2.83;;;2.03;;
8230;SDS011;4156;50.908;6.974;2024-03-02T09:26:54;2.83;;;2.00;;
8230;SDS011;4156;50.908;6.974;2024-03-02T09:29:20;3.27;;;1.90;;
8230;SDS011;4156;50.908;6.974;2024-03-02T09:31:46;2.20;;;1.83;;
8230;SDS011;4156;50.908;6.974;2024-03-02T09:34:12;2.93;;;1.80;;
8230;SDS011;4156;50.908;6.974;2024-03-02T09:36:39;2.50;;;1.80;;
8230;SDS011;4156;50.908;6.974;2024-03-02T09:39:07;3.13;;;1.77;;
8230;SDS011;4156;50.908;6.974;2024-03-02T09:41:34;2.43;;;1.90;;
8230;SDS011;4156;50.908;6.974;2024-03-02T09:44:00;2.73;;;1.77;;
8230;SDS011;4156;50.908;6.974;2024-03-02T09:46:27;2.97;;;2.13;;
8230;SDS011;4156;50.908;6.974;2024-03-02T09:48:53;2.33;;;1.77;;
8230;SDS011;4156;50.908;6.974;2024-03-02T09:51:19;1.63;;;1.50;;
8230;SDS011;4156;50.908;6.974;2024-03-02T09:53:45;3.00;;;1.90;;
8230;SDS011;4156;50.908;6.974;2024-03-02T09:56:11;4.60;;;1.90;;
8230;SDS011;4156;50.908;6.974;2024-03-02T09:58:38;1.83;;;1.60;;
8230;SDS011;4156;50.908;6.974;2024-03-02T10:01:07;3.07;;;1.80;;
8230;SDS011;4156;50.908;6.974;2024-03-02T10:03:35;2.00;;;1.80;;
8230;SDS011;4156;50.908;6.974;2024-03-02T10:08:47;3.83;;;1.60;;
8230;SDS011;4156;50.908;6.974;2024-03-02T10:11:29;3.00;;;1.90;;
8230;SDS011;4156;50.908;6.974;2024-03-02T10:16:33;2.57;;;1.90;;
8230;SDS011;4156;50.908;6.974;2024-03-02T10:19:05;1.90;;;1.70;;
8230;SDS011;4156;50.908;6.974;2024-03-02T10:21:40;2.77;;;2.00;;
8230;SDS011;4156;50.908;6.974;2024-03-02T10:24:07;2.60;;;1.80;;
8230;SDS011;4156;50.908;6.974;2024-03-02T10:26:33;3.13;;;2.00;;
8230;SDS011;4156;50.908;6.974;2024-03-02T10:28:59;2.30;;;1.60;;
8230;SDS011;4156;50.908;6.974;2024-03-02T10:31:25;1.90;;;1.70;;
8230;SDS011;4156;50.908;6.974;2024-03-02T10:33:54;2.70;;;1.70;;
8230;SDS011;4156;50.908;6.974;2024-03-02T10:36:20;2.20;;;1.60;;
8230;SDS011;4156;50.908;6.974;2024-03-02T10:38:46;3.10;;;1.83;;
8230;SDS011;4156;50.908;6.974;2024-03-02T10:41:16;2.67;;;1.70;;
8230;SDS011;4156;50.908;6.974;2024-03-02T10:43:44;1.83;;;1.57;;
8230;SDS011;4156;50.908;6.974;2024-03-02T10:46:10;3.80;;;1.80;;
8230;SDS011;4156;50.908;6.974;2024-03-02T10:48:37;2.50;;;1.80;;
8230;SDS011;4156;50.908;6.974;2024-03-02T10:51:05;3.37;;;1.70;;
8230;SDS011;4156;50.908;6.974;2024-03-02T10:53:31;3.27;;;1.90;;
8230;SDS011;4156;50.908;6.974;2024-03-02T10:55:58;2.40;;;1.70;;
8230;SDS011;4156;50.908;6.974;2024-03-02T10:58:27;2.50;;;2.23;;
8230;SDS011;4156;50.908;6.974;2024-03-02T11:00:57;2.13;;;1.70;;
8230;SDS011;4156;50.908;6.974;2024-03-02T11:03:24;2.27;;;1.90;;
8230;SDS011;4156;50.908;6.974;2024-03-02T11:05:50;3.13;;;2.00;;
8230;SDS011;4156;50.908;6.974;2024-03-02T11:08:17;2.67;;;1.90;;
8230;SDS011;4156;50.908;6.974;2024-03-02T11:10:56;3.30;;;1.87;;
8230;SDS011;4156;50.908;6.974;2024-03-02T11:13:42;2.73;;;1.80;;
8230;SDS011;4156;50.908;6.974;2024-03-02T11:16:12;1.50;;;1.40;;
8230;SDS011;4156;50.908;6.974;2024-03-02T11:18:41;3.53;;;2.10;;
8230;SDS011;4156;50.908;6.974;2024-03-02T11:21:07;2.17;;;1.90;;
8230;SDS011;4156;50.908;6.974;2024-03-02T11:23:34;3.30;;;1.90;;
8230;SDS011;4156;50.908;6.974;2024-03-02T11:26:16;2.13;;;1.77;;
8230;SDS011;4156;50.908;6.974;2024-03-02T11:28:43;2.83;;;1.67;;
8230;SDS011;4156;50.908;6.974;2024-03-02T11:31:09;2.50;;;1.83;;
8230;SDS011;4156;50.908;6.974;2024-03-02T11:33:35;2.00;;;1.60;;
8230;SDS011;4156;50.908;6.974;2024-03-02T11:36:01;1.97;;;1.60;;
8230;SDS011;4156;50.908;6.974;2024-03-02T11:38:33;3.40;;;1.70;;
8230;SDS011;4156;50.908;6.974;2024-03-02T11:41:00;2.63;;;1.80;;
8230;SDS011;4156;50.908;6.974;2024-03-02T11:43:30;1.53;;;1.43;;
8230;SDS011;4156;50.908;6.974;2024-03-02T11:46:00;3.90;;;1.70;;
8230;SDS011;4156;50.908;6.974;2024-03-02T11:48:29;2.43;;;1.70;;
8230;SDS011;4156;50.908;6.974;2024-03-02T11:50:57;2.77;;;2.00;;
8230;SDS011;4156;50.908;6.974;2024-03-02T11:53:23;1.63;;;1.53;;
8230;SDS011;4156;50.908;6.974;2024-03-02T11:55:49;2.27;;;1.90;;
8230;SDS011;4156;50.908;6.974;2024-03-02T11:58:16;2.07;;;1.70;;
8230;SDS011;4156;50.908;6.974;2024-03-02T12:00:46;1.93;;;1.60;;
8230;SDS011;4156;50.908;6.974;2024-03-02T12:03:12;3.53;;;1.70;;
8230;SDS011;4156;50.908;6.974;2024-03-02T12:05:39;2.33;;;1.80;;
8230;SDS011;4156;50.908;6.974;2024-03-02T12:08:05;4.10;;;2.63;;
8230;SDS011;4156;50.908;6.974;2024-03-02T12:10:32;3.27;;;1.80;;
8230;SDS011;4156;50.908;6.974;2024-03-02T12:12:59;3.53;;;1.73;;
8230;SDS011;4156;50.908;6.974;2024-03-02T12:15:25;2.60;;;1.63;;
8230;SDS011;4156;50.908;6.974;2024-03-02T12:17:53;1.53;;;1.43;;
8230;SDS011;4156;50.908;6.974;2024-03-02T12:20:19;2.27;;;1.70;;
8230;SDS011;4156;50.908;6.974;2024-03-02T12:22:49;2.23;;;1.77;;
8230;SDS011;4156;50.908;6.974;2024-03-02T12:25:15;3.07;;;1.90;;
8230;SDS011;4156;50.908;6.974;2024-03-02T12:27:42;1.77;;;1.33;;
8230;SDS011;4156;50.908;6.974;2024-03-02T12:30:08;1.50;;;1.40;;
8230;SDS011;4156;50.908;6.974;2024-03-02T12:32:35;1.70;;;1.40;;
8230;SDS011;4156;50.908;6.974;2024-03-02T12:35:03;2.37;;;1.47;;
8230;SDS011;4156;50.908;6.974;2024-03-02T12:37:30;2.33;;;1.60;;
8230;SDS011;4156;50.908;6.974;2024-03-02T12:39:56;2.17;;;1.30;;
8230;SDS011;4156;50.908;6.974;2024-03-02T12:42:23;3.40;;;1.50;;
8230;SDS011;4156;50.908;6.974;2024-03-02T12:44:51;1.83;;;1.60;;
8230;SDS011;4156;50.908;6.974;2024-03-02T12:47:20;1.93;;;1.40;;
8230;SDS011;4156;50.908;6.974;2024-03-02T12:49:46;1.47;;;1.37;;
8230;SDS011;4156;50.908;6.974;2024-03-02T12:52:15;1.40;;;1.20;;
8230;SDS011;4156;50.908;6.974;2024-03-02T12:54:42;1.77;;;1.67;;
8230;SDS011;4156;50.908;6.974;2024-03-02T12:57:08;1.70;;;1.40;;
8230;SDS011;4156;50.908;6.974;2024-03-02T12:59:34;1.30;;;1.20;;
8230;SDS011;4156;50.908;6.974;2024-03-02T13:02:02;1.67;;;1.40;;
8230;SDS011;4156;50.908;6.974;2024-03-02T13:04:28;3.97;;;1.70;;
8230;SDS011;4156;50.908;6.974;2024-03-02T13:06:56;2.43;;;1.77;;
8230;SDS011;4156;50.908;6.974;2024-03-02T13:09:22;2.80;;;1.60;;
8230;SDS011;4156;50.908;6.974;2024-03-02T13:11:48;1.70;;;1.60;;
8230;SDS011;4156;50.908;6.974;2024-03-02T13:14:15;4.90;;;1.60;;
8230;SDS011;4156;50.908;6.974;2024-03-02T13:16:41;2.20;;;1.40;;
8230;SDS011;4156;50.908;6.974;2024-03-02T13:19:13;1.73;;;1.63;;
8230;SDS011;4156;50.908;6.974;2024-03-02T13:21:39;1.93;;;1.77;;
8230;SDS011;4156;50.908;6.974;2024-03-02T13:24:05;1.30;;;1.20;;
8230;SDS011;4156;50.908;6.974;2024-03-02T13:26:31;1.77;;;1.30;;
8230;SDS011;4156;50.908;6.974;2024-03-02T13:28:58;1.33;;;1.20;;
8230;SDS011;4156;50.908;6.974;2024-03-02T13:31:24;2.73;;;1.33;;
8230;SDS011;4156;50.908;6.974;2024-03-02T13:33:50;1.40;;;1.30;;
8230;SDS011;4156;50.908;6.974;2024-03-02T13:36:16;1.67;;;1.23;;
8230;SDS011;4156;50.908;6.974;2024-03-02T13:38:43;2.10;;;1.47;;
8230;SDS011;4156;50.908;6.974;2024-03-02T13:41:09;4.93;;;1.37;;
8230;SDS011;4156;50.908;6.974;2024-03-02T13:43:36;1.30;;;1.20;;
8230;SDS011;4156;50.908;6.974;2024-03-02T13:46:03;1.33;;;1.20;;
8230;SDS011;4156;50.908;6.974;2024-03-02T13:48:29;1.57;;;1.30;;
8230;SDS011;4156;50.908;6.974;2024-03-02T13:50:56;1.47;;;1.20;;
8230;SDS011;4156;50.908;6.974;2024-03-02T13:53:22;1.30;;;1.20;;
8230;SDS011;4156;50.908;6.974;2024-03-02T13:55:48;1.43;;;1.00;;
8230;SDS011;4156;50.908;6.974;2024-03-02T13:58:14;1.13;;;1.13;;
8230;SDS011;4156;50.908;6.974;2024-03-02T14:00:40;1.17;;;1.00;;
8230;SDS011;4156;50.908;6.974;2024-03-02T14:03:06;1.80;;;1.30;;
8230;SDS011;4156;50.908;6.974;2024-03-02T14:05:32;1.60;;;1.20;;
8230;SDS011;4156;50.908;6.974;2024-03-02T14:07:59;1.53;;;1.17;;
8230;SDS011;4156;50.908;6.974;2024-03-02T14:10:27;1.67;;;1.57;;
8230;SDS011;4156;50.908;6.974;2024-03-02T14:12:54;3.00;;;1.40;;
8230;SDS011;4156;50.908;6.974;2024-03-02T14:15:20;1.43;;;1.30;;
8230;SDS011;4156;50.908;6.974;2024-03-02T14:17:46;1.13;;;1.03;;
8230;SDS011;4156;50.908;6.974;2024-03-02T14:20:12;1.80;;;1.30;;
8230;SDS011;4156;50.908;6.974;2024-03-02T14:22:38;2.70;;;1.50;;
8230;SDS011;4156;50.908;6.974;2024-03-02T14:25:04;1.57;;;1.40;;
8230;SDS011;4156;50.908;6.974;2024-03-02T14:27:31;1.97;;;1.57;;
8230;SDS011;4156;50.908;6.974;2024-03-02T14:29:57;1.50;;;1.40;;
8230;SDS011;4156;50.908;6.974;2024-03-02T14:32:23;1.60;;;1.50;;
8230;SDS011;4156;50.908;6.974;2024-03-02T14:34:49;2.53;;;1.40;;
8230;SDS011;4156;50.908;6.974;2024-03-02T14:37:15;3.77;;;1.60;;
8230;SDS011;4156;50.908;6.974;2024-03-02T14:39:41;1.83;;;1.47;;
8230;SDS011;4156;50.908;6.974;2024-03-02T14:42:07;2.00;;;1.50;;
8230;SDS011;4156;50.908;6.974;2024-03-02T14:44:33;2.07;;;1.53;;
8230;SDS011;4156;50.908;6.974;2024-03-02T14:47:00;1.70;;;1.37;;
8230;SDS011;4156;50.908;6.974;2024-03-02T14:49:27;1.53;;;1.43;;
8230;SDS011;4156;50.908;6.974;2024-03-02T14:51:53;2.27;;;1.50;;
8230;SDS011;4156;50.908;6.974;2024-03-02T14:54:20;2.20;;;1.37;;
8230;SDS011;4156;50.908;6.974;2024-03-02T14:56:46;1.50;;;1.40;;
8230;SDS011;4156;50.908;6.974;2024-03-02T14:59:12;2.37;;;1.30;;
8230;SDS011;4156;50.908;6.974;2024-03-02T15:01:38;2.07;;;1.40;;
8230;SDS011;4156;50.908;6.974;2024-03-02T15:04:04;5.67;;;2.70;;
8230;SDS011;4156;50.908;6.974;2024-03-02T15:06:30;2.10;;;1.70;;
8230;SDS011;4156;50.908;6.974;2024-03-02T15:08:56;2.20;;;1.40;;
8230;SDS011;4156;50.908;6.974;2024-03-02T15:11:22;1.70;;;1.30;;
8230;SDS011;4156;50.908;6.974;2024-03-02T15:13:50;1.53;;;1.43;;
8230;SDS011;4156;50.908;6.974;2024-03-02T15:16:16;1.70;;;1.43;;
8230;SDS011;4156;50.908;6.974;2024-03-02T15:18:42;2.00;;;1.50;;
8230;SDS011;4156;50.908;6.974;2024-03-02T15:21:08;1.37;;;1.27;;
8230;SDS011;4156;50.908;6.974;2024-03-02T15:23:34;1.23;;;1.13;;